Time;durP1;ratioP1;P1;durP2;ratioP2;P2;SDS_P1;SDS_P2;PMS_P1;PMS_P2;Temp;Humidity;BMP_temperature;BMP_pressure;BME280_temperature;BME280_humidity;BME280_pressure;Samples;Min_cycle;Max_cycle;Signal;HPM_P1;HPM_P2
2021/07/15 00:00:30;;;;;;;16.90;12.57;;;;;;;23.17;67.15;101046.03;4855398;28;124101;-70
2021/07/15 00:03:07;;;;;;;17.17;12.55;;;;;;;23.16;66.94;101034.38;4851350;28;123242;-71
2021/07/15 00:05:36;;;;;;;17.88;12.52;;;;;;;23.15;66.99;101031.81;4855874;28;114262;-71
2021/07/15 00:08:04;;;;;;;18.52;13.05;;;;;;;23.13;66.99;101035.53;4859038;28;113168;-71
2021/07/15 00:10:36;;;;;;;17.15;12.55;;;;;;;23.13;66.98;101023.84;4854945;28;124855;-70
2021/07/15 00:13:04;;;;;;;16.77;12.80;;;;;;;23.13;67.02;101024.72;4885219;28;124904;-70
2021/07/15 00:15:36;;;;;;;18.15;12.88;;;;;;;23.12;66.92;101028.41;4870846;28;115549;-71
2021/07/15 00:18:09;;;;;;;17.88;12.88;;;;;;;23.12;66.76;101031.09;4858064;28;114293;-71
2021/07/15 00:20:43;;;;;;;18.73;12.77;;;;;;;23.10;66.97;101030.41;4857591;28;123698;-71
2021/07/15 00:23:11;;;;;;;21.52;13.48;;;;;;;23.10;66.90;101035.81;4855095;28;123930;-70
2021/07/15 00:25:39;;;;;;;19.77;13.32;;;;;;;23.08;67.02;101037.81;4851700;28;114348;-70
2021/07/15 00:28:07;;;;;;;20.88;14.00;;;;;;;23.07;66.99;101036.09;4868656;28;114453;-70
2021/07/15 00:30:34;;;;;;;18.58;13.35;;;;;;;23.08;67.05;101031.56;4858443;28;124116;-69
2021/07/15 00:33:03;;;;;;;19.50;13.35;;;;;;;23.05;67.05;101032.69;4856121;28;124423;-69
2021/07/15 00:35:31;;;;;;;19.23;12.73;;;;;;;23.05;67.09;101027.28;4853551;28;114859;-70
2021/07/15 00:37:59;;;;;;;17.45;12.77;;;;;;;23.05;67.17;101027.28;4856809;28;114099;-70
2021/07/15 00:40:27;;;;;;;19.48;13.10;;;;;;;23.03;67.00;101034.69;4854098;28;124058;-70
2021/07/15 00:42:54;;;;;;;17.10;12.38;;;;;;;23.03;66.92;101034.69;4858301;28;124372;-70
2021/07/15 00:45:21;;;;;;;16.30;11.90;;;;;;;23.00;67.14;101036.78;4853706;28;114558;-69
2021/07/15 00:47:48;;;;;;;17.15;11.80;;;;;;;22.98;67.13;101026.16;4857044;28;113981;-69
2021/07/15 00:50:18;;;;;;;15.55;11.23;;;;;;;22.94;67.10;101030.09;4857536;28;124461;-71
2021/07/15 00:52:47;;;;;;;16.80;11.70;;;;;;;22.93;67.11;101028.44;4854300;28;124757;-70
2021/07/15 00:55:21;;;;;;;16.60;11.85;;;;;;;22.92;67.34;101029.41;4856436;28;114244;-70
2021/07/15 00:57:49;;;;;;;15.43;11.50;;;;;;;22.91;67.32;101025.88;4855935;28;113661;-70
2021/07/15 01:00:17;;;;;;;16.17;11.18;;;;;;;22.92;67.39;101026.72;4865857;28;123979;-70
2021/07/15 01:02:45;;;;;;;16.13;11.10;;;;;;;22.90;67.19;101032.25;4882416;28;124708;-70
2021/07/15 01:05:16;;;;;;;15.98;11.02;;;;;;;22.89;67.37;101027.00;4844391;28;114577;-70
2021/07/15 01:07:43;;;;;;;15.23;10.45;;;;;;;22.86;67.37;101030.84;4855563;28;112951;-70
2021/07/15 01:10:13;;;;;;;13.48;9.52;;;;;;;22.84;67.35;101030.13;4853949;28;124171;-70
2021/07/15 01:13:07;;;;;;;14.40;10.35;;;;;;;22.82;67.39;101037.53;4858059;28;124566;-70
2021/07/15 01:15:45;;;;;;;14.32;10.18;;;;;;;22.81;67.48;101035.84;4851131;29;114433;-70
2021/07/15 01:18:18;;;;;;;13.45;10.23;;;;;;;22.81;67.42;101041.25;4855942;29;114398;-70
2021/07/15 01:21:20;;;;;;;15.73;10.98;;;;;;;22.81;67.44;101035.84;4932213;23;124778;-76
2021/07/15 01:24:18;;;;;;;15.55;10.90;;;;;;;22.79;67.43;101034.25;4928920;28;122873;-77
2021/07/15 01:27:15;;;;;;;14.88;10.57;;;;;;;22.76;67.38;101037.28;4937076;28;114490;-78
2021/07/15 01:29:54;;;;;;;14.50;10.63;;;;;;;22.77;67.50;101049.75;4928657;28;113809;-77
2021/07/15 01:32:24;;;;;;;15.95;11.02;;;;;;;22.74;67.41;101046.34;4924207;28;124253;-76
2021/07/15 01:34:53;;;;;;;16.45;11.40;;;;;;;22.73;67.53;101039.25;4927610;28;123713;-78
2021/07/15 01:37:20;;;;;;;16.90;11.68;;;;;;;22.73;67.53;101033.88;4926258;28;114154;-76
2021/07/15 01:39:50;;;;;;;17.33;11.80;;;;;;;22.74;67.48;101024.75;4925211;28;114105;-78
2021/07/15 01:42:20;;;;;;;16.95;11.68;;;;;;;22.73;67.52;101028.47;4928630;28;123453;-78
2021/07/15 01:44:48;;;;;;;16.60;11.70;;;;;;;22.74;67.53;101043.66;4924887;28;123877;-77
2021/07/15 01:47:15;;;;;;;16.02;11.45;;;;;;;22.73;67.58;101033.88;4928951;28;114678;-76
2021/07/15 01:49:42;;;;;;;19.95;12.43;;;;;;;22.71;67.43;101019.63;4933633;28;113483;-76
2021/07/15 01:52:11;;;;;;;19.38;12.38;;;;;;;22.68;67.48;101025.34;4931797;28;123667;-79
2021/07/15 01:54:38;;;;;;;17.83;12.18;;;;;;;22.68;67.70;101025.34;4926717;28;123842;-77
2021/07/15 01:57:06;;;;;;;19.65;11.98;;;;;;;22.69;67.45;101036.97;4934343;28;115210;-78
2021/07/15 01:59:34;;;;;;;17.17;11.95;;;;;;;22.68;67.50;101044.22;4930042;28;115499;-79
2021/07/15 02:02:02;;;;;;;18.23;12.23;;;;;;;22.69;67.58;101043.22;4924388;28;123249;-79
2021/07/15 02:04:31;;;;;;;19.98;12.73;;;;;;;22.69;67.56;101037.81;4931460;28;123104;-79
2021/07/15 02:07:00;;;;;;;18.52;11.77;;;;;;;22.68;67.66;101036.13;4929083;28;115152;-79
2021/07/15 02:09:28;;;;;;;19.17;12.40;;;;;;;22.68;67.59;101040.69;4929129;28;114341;-80
2021/07/15 02:11:56;;;;;;;17.58;11.90;;;;;;;22.67;67.67;101044.38;4940861;28;124002;-80
2021/07/15 02:14:25;;;;;;;19.42;12.07;;;;;;;22.67;67.62;101038.97;4916999;28;123439;-79
2021/07/15 02:16:56;;;;;;;18.67;12.38;;;;;;;22.65;67.62;101047.22;4933770;28;113549;-79
2021/07/15 02:19:25;;;;;;;17.85;11.75;;;;;;;22.65;67.66;101051.75;4934167;28;114141;-79
2021/07/15 02:21:54;;;;;;;18.30;11.40;;;;;;;22.63;67.61;101043.81;4934748;28;123214;-81
2021/07/15 02:24:26;;;;;;;17.30;11.65;;;;;;;22.62;67.68;101036.72;4934572;28;123860;-79
2021/07/15 02:26:56;;;;;;;14.50;10.70;;;;;;;22.62;67.69;101047.50;4934316;28;114529;-79
2021/07/15 02:29:23;;;;;;;15.88;9.73;;;;;;;22.61;67.54;101040.41;4934668;28;114809;-79
2021/07/15 02:32:01;;;;;;;14.82;9.55;;;;;;;22.58;67.55;101043.38;4920640;28;124685;-81
2021/07/15 02:34:31;;;;;;;13.23;8.98;;;;;;;22.59;67.69;101047.78;4929918;28;124693;-80
2021/07/15 02:37:00;;;;;;;13.57;9.00;;;;;;;22.58;67.40;101040.66;4916579;28;113481;-79
2021/07/15 02:39:27;;;;;;;14.32;9.32;;;;;;;22.56;67.69;101050.75;4934761;28;113490;-79
2021/07/15 02:41:55;;;;;;;15.40;10.02;;;;;;;22.56;67.57;101053.47;4921594;28;123309;-78
2021/07/15 02:44:25;;;;;;;14.45;10.10;;;;;;;22.56;67.55;101048.06;4934585;28;123390;-79
2021/07/15 02:46:52;;;;;;;16.70;11.13;;;;;;;22.56;67.60;101053.47;4931125;28;113775;-81
2021/07/15 02:49:19;;;;;;;14.98;10.20;;;;;;;22.56;67.60;101058.88;4931659;28;115181;-80
2021/07/15 02:51:46;;;;;;;15.98;10.82;;;;;;;22.55;67.75;101051.78;4914892;28;123440;-80
2021/07/15 02:54:14;;;;;;;17.88;11.05;;;;;;;22.54;67.58;101044.66;4927017;28;124218;-78
2021/07/15 02:56:52;;;;;;;20.27;11.30;;;;;;;22.51;67.62;101039.56;4934004;28;114535;-78
2021/07/15 02:59:34;;;;;;;17.35;10.95;;;;;;;22.51;67.38;101044.97;4910933;28;113898;-80
2021/07/15 03:02:10;;;;;;;17.20;10.88;;;;;;;22.51;67.49;101042.25;4942659;28;124467;-81
2021/07/15 03:04:42;;;;;;;20.92;11.88;;;;;;;22.52;67.54;101046.66;4941170;28;123836;-78
2021/07/15 03:07:10;;;;;;;17.05;10.98;;;;;;;22.51;67.40;101047.66;4944485;28;114671;-80
2021/07/15 03:09:39;;;;;;;18.95;11.88;;;;;;;22.50;67.73;101054.03;4932765;28;112740;-81
2021/07/15 03:12:17;;;;;;;19.55;11.75;;;;;;;22.50;67.57;101059.44;4930452;28;123990;-81
2021/07/15 03:14:46;;;;;;;17.13;12.02;;;;;;;22.50;67.39;101048.63;4938577;28;123746;-80
2021/07/15 03:17:15;;;;;;;18.40;12.80;;;;;;;22.49;67.58;101063.13;4934281;28;115067;-80
2021/07/15 03:19:45;;;;;;;18.38;12.02;;;;;;;22.49;67.69;101057.72;4935425;28;113504;-79
2021/07/15 03:22:13;;;;;;;21.58;12.73;;;;;;;22.48;67.68;101066.81;4932111;28;125360;-79
2021/07/15 03:24:50;;;;;;;18.95;11.93;;;;;;;22.48;67.61;101077.63;4930919;28;123098;-81
2021/07/15 03:27:19;;;;;;;21.65;12.75;;;;;;;22.47;67.62;101075.91;4928165;28;114334;-79
2021/07/15 03:29:48;;;;;;;21.30;12.55;;;;;;;22.47;67.63;101070.50;4925478;28;114001;-80
2021/07/15 03:32:17;;;;;;;19.50;12.40;;;;;;;22.48;67.58;101072.22;4927335;28;124242;-78
2021/07/15 03:34:45;;;;;;;20.27;13.30;;;;;;;22.48;67.68;101066.81;4931171;28;124154;-81
2021/07/15 03:37:15;;;;;;;20.48;12.95;;;;;;;22.49;67.57;101068.50;4921205;28;114621;-80
2021/07/15 03:39:45;;;;;;;20.25;12.55;;;;;;;22.49;67.57;101068.50;4925675;28;114545;-81
2021/07/15 03:42:13;;;;;;;18.83;12.50;;;;;;;22.48;67.61;101066.81;4930371;28;124078;-80
2021/07/15 03:44:40;;;;;;;20.58;12.23;;;;;;;22.47;67.69;101070.50;4928450;28;124603;-80
2021/07/15 03:47:09;;;;;;;18.88;11.63;;;;;;;22.46;67.46;101075.06;4917389;28;114206;-79
2021/07/15 03:49:37;;;;;;;17.92;11.95;;;;;;;22.47;67.61;101078.59;4934160;28;113340;-79
2021/07/15 03:52:05;;;;;;;18.60;11.48;;;;;;;22.45;67.50;101075.19;4933955;28;124768;-80
2021/07/15 03:54:32;;;;;;;15.73;11.27;;;;;;;22.44;67.48;101076.22;4933602;28;124309;-79
2021/07/15 03:57:00;;;;;;;18.00;11.25;;;;;;;22.43;67.44;101079.88;4941064;28;114410;-79
2021/07/15 03:59:29;;;;;;;16.08;11.05;;;;;;;22.43;67.65;101085.28;4926631;28;113631;-80
2021/07/15 04:02:03;;;;;;;17.23;10.57;;;;;;;22.41;67.62;101087.28;4938679;28;122980;-80
2021/07/15 04:04:31;;;;;;;16.33;10.30;;;;;;;22.40;67.58;101081.03;4933115;28;122798;-78
2021/07/15 04:07:02;;;;;;;15.75;9.52;;;;;;;22.40;67.49;101088.28;4932288;28;113591;-76
2021/07/15 04:09:33;;;;;;;15.88;9.38;;;;;;;22.37;67.59;101083.16;4923186;28;113851;-77
2021/07/15 04:12:01;;;;;;;13.07;8.60;;;;;;;22.32;67.57;101089.81;4919865;28;124956;-76
2021/07/15 04:14:49;;;;;;;13.48;8.15;;;;;;;22.28;67.54;101093.81;4929561;28;123898;-77
2021/07/15 04:17:17;;;;;;;12.48;7.93;;;;;;;22.27;67.61;101092.09;4943951;28;113638;-78
2021/07/15 04:19:45;;;;;;;12.77;8.35;;;;;;;22.26;67.66;101095.75;4926078;28;114692;-78
2021/07/15 04:22:13;;;;;;;12.35;8.48;;;;;;;22.25;67.71;101083.28;4913820;28;123680;-78
2021/07/15 04:24:43;;;;;;;11.88;7.57;;;;;;;22.25;67.62;101094.06;4919527;28;123753;-77
2021/07/15 04:27:10;;;;;;;11.75;7.63;;;;;;;22.24;67.75;101092.31;4924694;28;115162;-79
2021/07/15 04:29:39;;;;;;;12.40;7.82;;;;;;;22.23;67.76;101090.63;4924575;28;115341;-77
2021/07/15 04:32:19;;;;;;;11.50;7.65;;;;;;;22.23;67.65;101101.41;4920250;28;122995;-77
2021/07/15 04:34:47;;;;;;;9.88;7.22;;;;;;;22.22;67.73;101094.31;4923535;28;124951;-78
2021/07/15 04:37:16;;;;;;;11.68;7.63;;;;;;;22.20;67.73;101090.91;4920502;28;113331;-77
2021/07/15 04:39:44;;;;;;;11.23;7.57;;;;;;;22.20;67.71;101090.06;4929563;28;114444;-78
2021/07/15 04:42:13;;;;;;;11.75;7.70;;;;;;;22.19;67.75;101102.69;4931005;28;123559;-77
2021/07/15 04:44:41;;;;;;;9.95;6.63;;;;;;;22.19;67.73;101105.41;4919595;28;122018;-78
2021/07/15 04:47:09;;;;;;;11.05;6.88;;;;;;;22.19;67.56;101105.41;4929678;28;114262;-78
2021/07/15 04:49:37;;;;;;;9.73;6.70;;;;;;;22.19;67.72;101104.50;4912063;28;112615;-77
2021/07/15 04:52:06;;;;;;;11.38;7.47;;;;;;;22.19;67.85;101104.50;4929851;28;124830;-77
2021/07/15 04:54:39;;;;;;;10.18;7.45;;;;;;;22.18;67.82;101103.66;4931652;28;124126;-76
2021/07/15 04:57:09;;;;;;;9.13;6.50;;;;;;;22.17;67.81;101118.16;4939927;28;113224;-76
2021/07/15 04:59:38;;;;;;;9.07;6.35;;;;;;;22.16;67.79;101116.44;4930474;28;113488;-77
2021/07/15 05:02:06;;;;;;;8.73;6.15;;;;;;;22.14;67.79;101118.44;4932014;28;123972;-78
2021/07/15 05:04:33;;;;;;;8.32;5.75;;;;;;;22.13;67.97;101122.09;4944445;28;122619;-78
2021/07/15 05:07:00;;;;;;;8.40;5.97;;;;;;;22.15;67.92;101125.53;4926600;28;114086;-77
2021/07/15 05:09:27;;;;;;;11.25;6.70;;;;;;;22.15;67.85;101120.13;4927619;28;113176;-78
2021/07/15 05:11:54;;;;;;;9.23;5.93;;;;;;;22.16;67.83;101121.84;4924666;28;124593;-78
2021/07/15 05:14:22;;;;;;;8.20;6.10;;;;;;;22.16;67.78;101121.84;4925427;28;123571;-78
2021/07/15 05:16:49;;;;;;;7.93;5.50;;;;;;;22.16;67.89;101127.25;4937270;28;114506;-77
2021/07/15 05:19:19;;;;;;;9.45;5.60;;;;;;;22.15;67.68;101121.00;4921862;28;114606;-77
2021/07/15 05:21:46;;;;;;;7.95;5.70;;;;;;;22.16;67.90;101121.84;4927186;28;124273;-76
2021/07/15 05:24:13;;;;;;;8.57;5.35;;;;;;;22.15;67.86;101120.13;4925913;28;124431;-75
2021/07/15 05:26:40;;;;;;;7.88;5.22;;;;;;;22.14;68.02;101118.44;4926656;28;114500;-75
2021/07/15 05:29:07;;;;;;;10.50;5.57;;;;;;;22.12;67.81;101123.97;4933530;28;113929;-79
2021/07/15 05:31:34;;;;;;;7.72;4.90;;;;;;;22.11;67.88;101132.19;4930601;28;123712;-78
2021/07/15 05:34:01;;;;;;;8.75;5.18;;;;;;;22.12;67.82;101125.81;4931081;28;124270;-78
2021/07/15 05:36:30;;;;;;;8.77;5.05;;;;;;;22.12;67.86;101131.22;4929961;28;113774;-78
2021/07/15 05:38:57;;;;;;;8.75;5.70;;;;;;;22.12;67.97;101137.44;4926271;28;114626;-78
2021/07/15 05:41:24;;;;;;;8.38;6.10;;;;;;;22.12;67.95;101136.59;4929864;28;124820;-78
2021/07/15 05:43:51;;;;;;;11.13;6.78;;;;;;;22.13;67.92;101154.47;4911231;28;123632;-78
2021/07/15 05:46:18;;;;;;;11.77;6.68;;;;;;;22.13;67.88;101146.38;4931004;28;113931;-76
2021/07/15 05:48:45;;;;;;;12.35;7.47;;;;;;;22.12;67.95;101142.84;4927185;28;113193;-79
2021/07/15 05:51:13;;;;;;;13.13;7.30;;;;;;;22.11;68.05;101145.66;4921039;28;124068;-77
2021/07/15 05:53:40;;;;;;;11.98;7.50;;;;;;;22.10;68.06;101133.19;4918459;28;123072;-78
2021/07/15 05:56:07;;;;;;;10.25;6.80;;;;;;;22.10;68.03;101143.97;4930511;28;114900;-79
2021/07/15 05:58:34;;;;;;;11.00;6.15;;;;;;;22.11;68.35;101145.66;4900256;28;113525;-77
2021/07/15 06:01:01;;;;;;;10.38;6.05;;;;;;;22.11;68.02;101145.66;4926020;28;124260;-79
2021/07/15 06:03:28;;;;;;;9.13;5.80;;;;;;;22.12;68.20;101147.41;4925185;28;122799;-77
2021/07/15 06:05:55;;;;;;;10.50;5.82;;;;;;;22.13;68.12;101154.47;4920657;28;114731;-76
2021/07/15 06:08:22;;;;;;;11.07;5.93;;;;;;;22.14;68.17;101161.59;4928973;28;114864;-79
2021/07/15 06:10:49;;;;;;;9.13;6.13;;;;;;;22.14;68.12;101161.59;4930904;28;122869;-79
2021/07/15 06:13:16;;;;;;;9.15;6.15;;;;;;;22.14;68.06;101161.59;4933138;28;124046;-80
2021/07/15 06:15:44;;;;;;;11.73;6.30;;;;;;;22.15;68.22;101163.28;4944368;28;113824;-79
2021/07/15 06:18:11;;;;;;;9.65;6.25;;;;;;;22.16;68.10;101159.63;4945441;28;113848;-80
2021/07/15 06:20:38;;;;;;;10.18;6.03;;;;;;;22.16;68.08;101156.91;4926882;28;124131;-82
2021/07/15 06:23:05;;;;;;;10.93;6.07;;;;;;;22.15;68.23;101153.38;4927561;28;124411;-81
2021/07/15 06:25:32;;;;;;;9.52;6.20;;;;;;;22.17;68.14;101155.94;4942727;28;113157;-78
2021/07/15 06:27:59;;;;;;;8.63;5.65;;;;;;;22.17;68.19;101167.56;4924871;28;113798;-78
2021/07/15 06:30:26;;;;;;;9.82;5.47;;;;;;;22.17;68.27;101166.72;4912095;28;123337;-78
2021/07/15 06:32:54;;;;;;;8.80;6.00;;;;;;;22.16;68.14;101175.81;4942514;28;123005;-78
2021/07/15 06:35:22;;;;;;;9.48;6.20;;;;;;;22.15;68.20;101169.56;4929770;28;114564;-77
2021/07/15 06:37:54;;;;;;;10.60;6.07;;;;;;;22.15;68.27;101174.97;4935057;28;114074;-78
2021/07/15 06:40:22;;;;;;;11.48;7.10;;;;;;;22.14;68.28;101189.41;4923669;28;123380;-82
2021/07/15 06:42:49;;;;;;;10.93;7.32;;;;;;;22.15;68.28;101184.88;4920268;28;123046;-79
2021/07/15 06:45:17;;;;;;;13.90;7.78;;;;;;;22.15;68.22;101179.47;4930042;28;114314;-78
2021/07/15 06:47:44;;;;;;;16.10;8.35;;;;;;;22.12;68.15;101185.16;4945327;28;114356;-80
2021/07/15 06:50:13;;;;;;;12.90;8.05;;;;;;;22.10;68.21;101176.34;4927138;28;121977;-78
2021/07/15 06:52:40;;;;;;;13.70;8.40;;;;;;;22.10;68.33;101187.16;4936306;28;123847;-81
2021/07/15 06:55:08;;;;;;;15.90;8.88;;;;;;;22.09;68.32;101188.97;4911555;28;115219;-80
2021/07/15 06:57:35;;;;;;;18.08;9.30;;;;;;;22.10;68.28;101200.63;4922951;28;115094;-81
2021/07/15 07:00:10;;;;;;;17.58;10.02;;;;;;;22.10;68.27;101203.34;4919996;28;123817;-78
2021/07/15 07:02:41;;;;;;;19.63;10.63;;;;;;;22.10;68.26;101206.03;4929392;28;124709;-82
2021/07/15 07:05:10;;;;;;;18.63;10.10;;;;;;;22.10;68.27;101214.97;4939736;28;113864;-79
2021/07/15 07:07:38;;;;;;;18.73;10.20;;;;;;;22.09;68.23;101218.66;4927447;28;114135;-80
2021/07/15 07:10:07;;;;;;;20.60;11.20;;;;;;;22.08;68.12;101232.28;4927628;28;124011;-81
2021/07/15 07:12:34;;;;;;;19.63;10.88;;;;;;;22.08;68.38;101237.69;4928727;28;122705;-78
2021/07/15 07:15:03;;;;;;;19.52;10.90;;;;;;;22.09;68.25;101233.97;4932617;28;114131;-79
2021/07/15 07:17:30;;;;;;;22.23;10.48;;;;;;;22.06;68.18;101231.56;4948494;28;113407;-80
2021/07/15 07:19:58;;;;;;;18.35;9.50;;;;;;;22.05;68.32;101243.34;4919774;28;122729;-79
2021/07/15 07:22:25;;;;;;;16.63;9.60;;;;;;;22.05;68.26;101232.53;4925960;28;123736;-77
2021/07/15 07:24:52;;;;;;;17.50;9.18;;;;;;;22.06;68.39;101235.13;4935645;28;114324;-78
2021/07/15 07:27:19;;;;;;;15.68;9.98;;;;;;;22.06;68.30;101228.88;4929016;28;113828;-77
2021/07/15 07:29:46;;;;;;;18.15;10.38;;;;;;;22.06;68.43;101236.97;4930120;28;123916;-83
2021/07/15 07:32:13;;;;;;;18.17;10.23;;;;;;;22.07;68.63;101247.59;4930174;28;123884;-77
2021/07/15 07:34:40;;;;;;;18.08;10.93;;;;;;;22.09;68.45;101233.97;4933282;28;114802;-77
2021/07/15 07:37:07;;;;;;;19.75;10.23;;;;;;;22.12;68.54;101244.53;4933406;28;113525;-78
2021/07/15 07:39:34;;;;;;;17.15;9.48;;;;;;;22.14;68.61;101245.22;4933657;28;123377;-77
2021/07/15 07:42:02;;;;;;;15.18;8.90;;;;;;;22.17;68.79;101242.28;4931415;28;124567;-77
2021/07/15 07:44:29;;;;;;;15.02;8.80;;;;;;;22.19;68.61;101245.69;4929365;28;115767;-77
2021/07/15 07:46:56;;;;;;;15.52;8.95;;;;;;;22.23;68.91;101239.03;4929144;28;115145;-77
2021/07/15 07:49:24;;;;;;;13.82;8.25;;;;;;;22.27;68.59;101247.75;4930747;28;123387;-77
2021/07/15 07:51:52;;;;;;;14.10;7.82;;;;;;;22.28;68.52;101244.03;4934957;28;123858;-77
2021/07/15 07:54:19;;;;;;;12.85;7.80;;;;;;;22.31;68.44;101249.19;4927550;28;114146;-76
2021/07/15 07:56:46;;;;;;;13.55;7.57;;;;;;;22.32;68.50;101246.34;4930572;28;113749;-77
2021/07/15 07:59:13;;;;;;;11.68;6.95;;;;;;;22.33;68.32;101256.13;4929610;28;123779;-78
2021/07/15 08:01:40;;;;;;;9.90;6.75;;;;;;;22.34;68.34;101255.16;4931170;28;122407;-78
2021/07/15 08:04:07;;;;;;;10.45;6.55;;;;;;;22.34;68.40;101265.09;4949775;28;112576;-79
2021/07/15 08:06:36;;;;;;;7.40;5.68;;;;;;;22.33;68.19;101271.47;4925924;28;113009;-79
2021/07/15 08:09:08;;;;;;;7.88;5.72;;;;;;;22.32;68.16;101267.06;4928005;28;124118;-79
2021/07/15 08:11:36;;;;;;;9.07;5.78;;;;;;;22.31;68.09;101274.31;4920052;28;124834;-79
2021/07/15 08:14:04;;;;;;;10.30;6.00;;;;;;;22.30;68.05;101275.31;4907924;28;113546;-79
2021/07/15 08:16:32;;;;;;;10.48;6.18;;;;;;;22.29;68.06;101279.00;4935420;28;113015;-80
2021/07/15 08:18:59;;;;;;;11.02;7.07;;;;;;;22.29;68.09;101288.94;4933383;28;124184;-78
2021/07/15 08:21:26;;;;;;;10.77;7.22;;;;;;;22.26;67.89;101287.34;4916502;28;122307;-79
2021/07/15 08:23:53;;;;;;;13.10;8.15;;;;;;;22.24;67.97;101286.59;4922240;28;114002;-81
2021/07/15 08:26:20;;;;;;;13.75;7.65;;;;;;;22.23;67.90;101279.50;4923774;28;112306;-80
2021/07/15 08:28:48;;;;;;;13.88;8.57;;;;;;;22.22;67.90;101288.56;4955133;28;122309;-79
2021/07/15 08:31:15;;;;;;;13.27;8.43;;;;;;;22.22;67.97;101288.56;4933328;28;123175;-79
2021/07/15 08:33:42;;;;;;;13.65;7.95;;;;;;;22.23;67.90;101284.91;4938745;28;114639;-79
2021/07/15 08:36:10;;;;;;;12.90;7.85;;;;;;;22.20;67.97;101290.56;4951397;28;114815;-78
2021/07/15 08:38:38;;;;;;;14.95;8.35;;;;;;;22.18;67.82;101292.53;4957262;28;125032;-80
2021/07/15 08:41:06;;;;;;;13.30;8.13;;;;;;;22.16;67.98;101294.50;4949527;28;124445;-78
2021/07/15 08:43:36;;;;;;;12.60;8.43;;;;;;;22.16;67.89;101299.91;4935824;28;114121;-79
2021/07/15 08:46:06;;;;;;;15.35;8.32;;;;;;;22.16;68.09;101299.91;4952867;28;113359;-79
2021/07/15 08:48:34;;;;;;;16.60;8.40;;;;;;;22.16;68.03;101305.31;4951867;28;123650;-77
2021/07/15 08:51:02;;;;;;;16.75;8.68;;;;;;;22.17;68.09;101312.44;4951426;28;123383;-79
2021/07/15 08:53:31;;;;;;;12.88;8.75;;;;;;;22.17;68.33;101312.44;4955196;28;115102;-77
2021/07/15 08:58:44;;;;;;;12.73;7.90;;;;;;;22.19;68.02;101321.25;4970174;28;124951;-78
2021/07/15 09:01:13;;;;;;;16.08;8.25;;;;;;;22.20;68.12;101322.94;4955030;28;122552;-78
2021/07/15 09:03:40;;;;;;;12.13;8.15;;;;;;;22.22;68.13;101326.34;4950668;28;114858;-77
2021/07/15 09:06:08;;;;;;;12.75;7.07;;;;;;;22.22;68.02;101326.34;4955094;28;113266;-78
2021/07/15 09:08:35;;;;;;;13.65;6.57;;;;;;;22.22;67.89;101320.94;4950179;28;123595;-77
2021/07/15 09:11:03;;;;;;;10.23;6.05;;;;;;;22.20;67.87;101322.94;4950608;28;124516;-79
2021/07/15 09:13:30;;;;;;;10.43;6.07;;;;;;;22.22;67.89;101326.34;4944491;28;114223;-76
2021/07/15 09:15:58;;;;;;;11.13;5.90;;;;;;;22.23;67.82;101327.22;4939427;28;114471;-79
2021/07/15 09:18:25;;;;;;;8.80;5.85;;;;;;;22.23;68.02;101328.06;4913928;28;123007;-80
2021/07/15 09:20:52;;;;;;;8.57;5.28;;;;;;;22.24;67.89;101340.56;4929215;28;124395;-80
2021/07/15 09:23:19;;;;;;;13.25;6.18;;;;;;;22.23;67.73;101343.41;4930316;28;115735;-81
2021/07/15 09:25:46;;;;;;;11.35;6.40;;;;;;;22.21;67.80;101350.75;4928097;28;114381;-78
2021/07/15 09:28:15;;;;;;;13.23;6.78;;;;;;;22.19;67.55;101348.22;4945400;28;123662;-78
2021/07/15 09:30:44;;;;;;;13.27;7.05;;;;;;;22.17;67.69;101355.59;4930825;28;125495;-78
2021/07/15 09:33:15;;;;;;;15.00;7.28;;;;;;;22.14;67.62;101351.31;4928650;28;114415;-79
2021/07/15 09:35:44;;;;;;;15.18;7.40;;;;;;;22.15;67.64;101352.16;4940152;28;114105;-79
2021/07/15 09:38:16;;;;;;;13.15;7.65;;;;;;;22.14;67.78;101350.44;4917255;28;123302;-81
2021/07/15 09:40:46;;;;;;;16.05;7.60;;;;;;;22.14;67.76;101353.16;4932051;28;123266;-78
2021/07/15 09:43:31;;;;;;;12.50;7.75;;;;;;;22.13;67.75;101364.91;4963067;28;114022;-77
2021/07/15 09:46:01;;;;;;;13.25;8.38;;;;;;;22.13;67.81;101359.53;4940754;28;112201;-79
2021/07/15 09:48:30;;;;;;;12.90;8.20;;;;;;;22.11;67.76;101361.50;4930439;28;124336;-79
2021/07/15 09:50:59;;;;;;;13.32;7.95;;;;;;;22.11;67.82;101366.88;4951099;28;123316;-80
2021/07/15 09:53:29;;;;;;;15.15;7.90;;;;;;;22.13;67.81;101364.91;4935934;28;112649;-80
2021/07/15 09:56:00;;;;;;;19.20;8.77;;;;;;;22.14;67.92;101366.63;4933782;28;112339;-81
2021/07/15 09:58:36;;;;;;;15.68;8.52;;;;;;;22.16;67.75;101364.66;4933642;28;122612;-81
2021/07/15 10:01:13;;;;;;;12.43;7.75;;;;;;;22.18;67.61;101368.09;4922015;28;123506;-79
2021/07/15 10:03:45;;;;;;;12.18;8.25;;;;;;;22.22;67.86;101372.22;4925792;28;112565;-80
2021/07/15 10:06:14;;;;;;;16.33;8.18;;;;;;;22.23;67.86;101365.84;4928748;28;113674;-80
2021/07/15 10:08:43;;;;;;;12.45;8.10;;;;;;;22.22;67.82;101369.53;4936299;28;123806;-79
2021/07/15 10:11:16;;;;;;;16.13;7.53;;;;;;;22.23;67.75;101363.16;4943115;28;123056;-79
2021/07/15 10:13:46;;;;;;;16.33;7.75;;;;;;;22.25;67.82;101374.69;4958769;28;113680;-80
2021/07/15 10:16:14;;;;;;;12.30;7.38;;;;;;;22.28;67.73;101373.56;4942004;28;114428;-79
2021/07/15 10:18:44;;;;;;;14.82;7.15;;;;;;;22.30;67.62;101377.88;4940659;28;123978;-81
2021/07/15 10:21:15;;;;;;;10.45;6.63;;;;;;;22.31;67.49;101379.56;4960258;28;122629;-81
2021/07/15 10:23:48;;;;;;;9.93;6.75;;;;;;;22.31;67.39;101382.25;4919367;28;113574;-82
2021/07/15 10:26:26;;;;;;;11.90;6.35;;;;;;;22.33;67.42;101377.59;4931966;28;114083;-80
2021/07/15 10:28:54;;;;;;;11.80;6.75;;;;;;;22.35;67.40;101380.16;4951838;28;123326;-81
2021/07/15 10:31:23;;;;;;;13.57;7.22;;;;;;;22.37;67.51;101377.31;4931488;28;123816;-81
2021/07/15 10:33:52;;;;;;;13.23;7.22;;;;;;;22.38;67.34;101388.00;4926365;28;113257;-79
2021/07/15 10:36:20;;;;;;;14.10;7.40;;;;;;;22.40;67.55;101371.69;4952517;28;113122;-80
2021/07/15 10:38:51;;;;;;;14.23;7.75;;;;;;;22.41;67.54;101378.75;4935362;28;123718;-79
2021/07/15 10:41:23;;;;;;;14.85;8.40;;;;;;;22.43;67.44;101376.78;4929696;28;123648;-81
2021/07/15 10:43:51;;;;;;;15.27;8.23;;;;;;;22.45;67.52;101385.59;4929723;28;112780;-79
2021/07/15 10:46:18;;;;;;;15.52;8.65;;;;;;;22.46;67.45;101381.94;4928115;28;113894;-79
2021/07/15 10:48:48;;;;;;;15.63;8.75;;;;;;;22.44;67.38;101389.31;4905461;28;122859;-81
2021/07/15 10:51:15;;;;;;;12.80;7.80;;;;;;;22.46;67.36;101395.44;4935328;28;123282;-80
2021/07/15 10:53:43;;;;;;;12.48;7.68;;;;;;;22.45;67.29;101391.00;4933411;28;114086;-81
2021/07/15 10:56:16;;;;;;;13.10;6.97;;;;;;;22.44;67.21;101400.94;4932280;28;113661;-79
2021/07/15 10:58:52;;;;;;;12.10;6.95;;;;;;;22.42;67.11;101402.09;4932914;28;125046;-78
2021/07/15 11:01:49;;;;;;;12.90;7.55;;;;;;;22.39;67.29;101403.19;4908988;28;122238;-79
2021/07/15 11:04:22;;;;;;;13.48;7.57;;;;;;;22.40;67.23;101409.47;4921373;28;115452;-79
2021/07/15 11:06:53;;;;;;;13.20;7.68;;;;;;;22.34;67.10;101411.69;4929777;28;115243;-80
2021/07/15 11:09:30;;;;;;;14.18;7.30;;;;;;;22.30;67.01;101410.25;4931233;28;123097;-79
2021/07/15 11:11:58;;;;;;;12.73;7.63;;;;;;;22.30;67.12;101407.56;4927319;28;123961;-78
2021/07/15 11:14:41;;;;;;;15.07;8.05;;;;;;;22.27;67.21;101407.81;4932845;28;114860;-79
2021/07/15 11:17:29;;;;;;;12.45;7.65;;;;;;;22.24;67.18;101410.72;4925803;28;114326;-79
2021/07/15 11:20:03;;;;;;;12.30;7.63;;;;;;;22.24;67.06;101416.13;4944766;28;123557;-79